Domov               UVHVVR             MKGP            O straneh              
ZDRAVSTVENO VARSTVO RASTLIN
  MREŽA AGROMET. POSTAJ
 ► PROGNOSTIČNA OBVESTILA
AGROMETEOROLOŠKI PODATKI -
ARSO
OBVLADOVANJE TVEGANJ ZARADI
NEUGODNIH VREMENSKIH RAZMER
  ► NARAVNE NESREČE
  ► SUŠA/MOČA
  ► NAMAKANJE
  ► ŽLED (gozdarstvo)
KARTOGRAFSKI PRIKAZI
SPLETNE POVEZAVE
PROJEKTI IN PUBLIKACIJE

AGROMETEOROLOŠKA MREŽA: VREMENSKE POSTAJE IN FENOLOŠKA OPAZOVANJA

Pregled podatkov za lokacijo Žalec (PDC), meteorološka postaja 27261

Pregled senzorjev na lokaciji

ID Ime Zadnja
vrednost
Datum
zadnje
spremembe
Tip
senzorja
545 Temperatura 2 m ( °C) 28,3 °C 17.8.2017 19:15 Generic -40 - +60°C
549 Sončno sevanje (W/m2) 26,47 W/m2 17.8.2017 19:15 CMP3 2000 W/m²
550 Temperatura tal ( °C) 23,87 °C 17.8.2017 19:15 Generic -20 - +40 °C
551 Hitrost vetra (km/h) 2,28 km/h 17.8.2017 19:15 Generic km/h
552 Smer vetra (°) 206,74 ° 17.8.2017 19:15 Generic 0 - 360°
558 Maksimalna hitrost vetra (km/h) 72,3 km/h 17.8.2017 19:15 Generic km/h
1460 Padavine 0.2 mm (mm) 0 mm 17.8.2017 19:15 Generic
1461 Relativna vlaga 2 m (% RH) 44,51 % RH 17.8.2017 19:15 Generic 0 - 100 %
3751 Omočenost lista (U) 0 U 17.8.2017 19:15 A730WET

Pregled podatkov zadnjih 24 ur

Zap.
št.
Datum in čas Žalec (PDC)
Hitrost
vetra
Maksimalna
hitrost
vetra
Omočenost
lista
Padavine
0.2
mm
Relativna
vlaga
2
m
Smer
vetra
Sončno
sevanje
Temperatura
2
m
Temperatura
tal
0 17.8.2017 18:30 2,28 72,3 0 0 44,51 206,74 26,47 28,3 23,87
1 17.8.2017 18:00 4,89 71,3 0 0 39,67 107,68 44,29 29,24 23,84
2 17.8.2017 17:30 5,13 74,64 0 0 38,62 128,51 102,6 29,68 23,8
3 17.8.2017 17:00 5,44 76,38 0 0 37,88 99,77 290,65 29,99 23,75
4 17.8.2017 16:30 5,96 77,52 0 0 37,43 51,75 419,73 30,15 23,67
5 17.8.2017 16:00 6,21 76,74 0 0 37,58 97,33 495,28 30,18 23,56
6 17.8.2017 15:30 5,43 76,94 0 0 38,64 188,75 567,56 30,07 23,45
7 17.8.2017 15:00 4,77 77,89 0 0 39,52 69,33 625,64 29,86 23,32
8 17.8.2017 14:30 5,38 76,43 0 0 39,86 122,75 684,18 29,87 23,19
9 17.8.2017 14:00 5 76,25 0 0 39,97 155,34 765,65 29,45 23,05
10 17.8.2017 13:30 4,69 76,03 0 0 41,04 230,5 791,99 28,88 22,92
11 17.8.2017 13:00 4,64 75,38 0 0 43,7 246,26 819,75 28,56 22,79
12 17.8.2017 12:30 4,5 74,28 0 0 45 228,06 829,89 28,07 22,66
13 17.8.2017 12:00 4,06 73,15 0 0 45,24 112,49 829,14 27,69 22,55
14 17.8.2017 11:30 4,93 73,2 0 0 46,19 60,12 816,47 26,97 22,45
15 17.8.2017 11:00 4 72,62 0 0 47,96 155,34 789,75 26,69 22,39
16 17.8.2017 10:30 3,92 71,71 0 0 49,76 183,82 754,37 25,99 22,34
17 17.8.2017 10:00 4,18 70,69 0 0 53,97 218,3 704,41 25,17 22,31
18 17.8.2017 09:30 3,64 67,29 0 0 60,26 219,09 640,91 24,29 22,3
19 17.8.2017 09:00 4,79 63,31 0 0 63,98 275,07 571,5 23,17 22,31
20 17.8.2017 08:30 5,05 65,61 0 0 67,07 268,78 494,15 22,14 22,31
21 17.8.2017 08:00 5,35 55,72 0 0 70,41 289,61 409,6 21 22,34
22 17.8.2017 07:30 6,02 51,42 0 0 73,02 259,88 317,6 20,07 22,39
23 17.8.2017 07:00 5,84 51,76 0,13 0 76,99 225,53 231,06 18,93 22,43
24 17.8.2017 06:30 3,39 51,03 5,07 0 79,58 292,18 146,4 18,33 22,47
25 17.8.2017 06:00 3,42 46,76 10 0 83,46 288,32 80,27 17,39 22,51
26 17.8.2017 05:30 2,61 39,58 10 0 85,16 241,29 15,14 16,78 22,57
27 17.8.2017 05:00 2,75 40,14 10 0 85,32 203,58 1,61 16,72 22,62
28 17.8.2017 04:30 2,22 37,75 10 0 85,68 293,9 -0,05 16,55 22,67
29 17.8.2017 04:00 4,55 39,07 10 0 84,47 249,99 0 17,01 22,73
30 17.8.2017 03:30 3,68 41,39 10 0 84,52 304,18 0,02 17,22 22,79
31 17.8.2017 03:00 2,82 42,49 10 0 81,24 238,61 0,13 17,69 22,84
32 17.8.2017 02:30 3,29 43 5 0 80,7 273,46 0,08 17,92 22,89
33 17.8.2017 02:00 4,87 46 2 0 79,49 284,32 0,08 18,34 22,94
34 17.8.2017 01:30 7,53 45,83 2 0 81,05 238,48 0,05 18,54 22,98
35 17.8.2017 01:00 6,7 45,76 3 0 81,93 257,11 0,05 18,44 23,05
36 17.8.2017 00:30 5,99 46,17 2,73 0 80,83 248,8 18,6 23,08
37 17.8.2017 00:00 6,6 3 0 81,15 262,39 18,91 23,12
38 16.8.2017 23:30 6 47,49 3,27 0 80,84 229,11 18,91 23,17
39 16.8.2017 23:00 5,97 48,54 2,73 0 79,32 244,89 19,39 23,21
40 16.8.2017 22:30 4,39 50,76 2 0 77,59 282,78 20 23,25
41 16.8.2017 22:00 4,22 53,62 1 0 75,99 285,33 20,52 23,3
42 16.8.2017 21:30 3,62 1 0 72,26 292,18 20,79 23,35
43 16.8.2017 21:00 5,29 2,6 0 77,69 274,78 20,7 23,37
44 16.8.2017 20:30 5,02 54,47 2,07 0 75,41 246,04 21,18 23,39
45 16.8.2017 20:00 3,71 57,06 0,6 0 66,49 304,58 21,91 23,42
46 16.8.2017 19:30 4,9 58,41 0 0 63,74 325,81 22,16 23,43
© 2011 Ministrstvo za kmetijstvo, gozdarstvo in prehrano. Vse pravice pridržane.